Time;durP1;ratioP1;P1;durP2;ratioP2;P2;SDS_P1;SDS_P2;PMS_P1;PMS_P2;Temp;Humidity;BMP_temperature;BMP_pressure;BME280_temperature;BME280_humidity;BME280_pressure;Samples;Min_cycle;Max_cycle;Signal;HPM_P1;HPM_P2
2022/08/23 02:47:27;;;;;;;5.95;2.38;;;15.00;99.90;;;;;;5247323;23;93668;-69
2022/08/23 02:49:52;;;;;;;5.78;2.10;;;15.10;99.90;;;;;;4804855;29;91432;-69
2022/08/23 02:52:18;;;;;;;5.45;2.70;;;14.90;99.90;;;;;;4805661;29;92038;-68
2022/08/23 02:54:44;;;;;;;5.18;2.40;;;14.90;99.90;;;;;;4798840;29;92706;-70
2022/08/23 02:57:09;;;;;;;7.20;2.42;;;14.80;99.90;;;;;;4802605;29;92180;-69
2022/08/23 02:59:36;;;;;;;6.45;2.25;;;14.90;99.90;;;;;;4805882;29;91595;-70
2022/08/23 03:02:01;;;;;;;4.57;2.15;;;14.90;99.90;;;;;;4812389;29;91932;-69
2022/08/23 03:04:27;;;;;;;4.90;2.83;;;14.90;99.90;;;;;;4819159;29;91698;-70
2022/08/23 03:06:53;;;;;;;5.57;2.45;;;14.70;99.90;;;;;;4805117;29;91912;-70
2022/08/23 03:09:19;;;;;;;4.35;2.75;;;14.70;99.90;;;;;;4805692;29;92129;-70
2022/08/23 03:11:48;;;;;;;6.07;2.25;;;14.70;99.90;;;;;;4801060;29;91207;-70
2022/08/23 03:14:14;;;;;;;4.20;2.50;;;14.80;99.90;;;;;;4787542;29;91521;-70
2022/08/23 03:16:40;;;;;;;4.72;2.00;;;14.80;99.90;;;;;;4811678;29;93413;-71
2022/08/23 03:19:06;;;;;;;6.03;2.40;;;14.70;99.90;;;;;;4812823;29;92253;-70
2022/08/23 03:21:32;;;;;;;8.75;2.70;;;14.80;99.90;;;;;;4807890;29;91765;-69
2022/08/23 03:23:58;;;;;;;4.82;2.20;;;14.70;99.90;;;;;;4808558;29;91653;-69
2022/08/23 03:26:24;;;;;;;4.80;2.35;;;14.70;99.90;;;;;;4810169;29;92017;-74
2022/08/23 03:28:49;;;;;;;6.53;2.42;;;14.60;99.90;;;;;;4808455;29;91402;-74
2022/08/23 03:31:16;;;;;;;5.28;2.22;;;14.50;99.90;;;;;;4808530;29;91356;-74
2022/08/23 03:33:42;;;;;;;5.97;2.80;;;14.50;99.90;;;;;;4808267;29;92021;-78
2022/08/23 03:36:10;;;;;;;5.13;2.38;;;14.50;99.90;;;;;;4808590;29;92390;-75
2022/08/23 03:38:38;;;;;;;6.47;2.72;;;14.50;99.90;;;;;;4812808;29;91287;-77
2022/08/23 03:41:04;;;;;;;9.00;2.63;;;14.50;99.90;;;;;;4812636;29;92485;-77
2022/08/23 03:43:30;;;;;;;4.88;2.50;;;14.50;99.90;;;;;;4810943;29;93229;-77
2022/08/23 03:45:55;;;;;;;4.70;2.60;;;14.40;99.90;;;;;;4802201;29;92189;-77
2022/08/23 03:48:21;;;;;;;4.82;2.33;;;14.40;99.90;;;;;;4804443;29;91492;-77
2022/08/23 03:50:47;;;;;;;6.60;2.75;;;14.40;99.90;;;;;;4806431;29;92014;-78
2022/08/23 03:53:13;;;;;;;5.10;2.40;;;14.30;99.90;;;;;;4805928;29;93782;-76
2022/08/23 03:55:40;;;;;;;7.15;2.47;;;14.30;99.90;;;;;;4805265;29;91752;-78
2022/08/23 03:58:06;;;;;;;8.30;3.20;;;14.30;99.90;;;;;;4811180;29;92129;-76
2022/08/23 04:00:32;;;;;;;7.13;2.90;;;14.20;99.90;;;;;;4803179;29;90611;-77
2022/08/23 04:02:58;;;;;;;6.82;2.95;;;14.10;99.90;;;;;;4800192;29;91747;-77
2022/08/23 04:05:24;;;;;;;7.63;2.63;;;14.10;99.90;;;;;;4804164;29;91992;-77
2022/08/23 04:07:50;;;;;;;5.45;2.17;;;14.10;99.90;;;;;;4807720;29;92309;-76
2022/08/23 04:10:16;;;;;;;7.47;2.58;;;14.00;99.90;;;;;;4800975;29;92217;-77
2022/08/23 04:12:42;;;;;;;5.95;2.90;;;14.10;99.90;;;;;;4808079;29;92308;-76
2022/08/23 04:15:09;;;;;;;6.18;3.22;;;14.10;99.90;;;;;;4806690;29;91937;-77
2022/08/23 04:17:35;;;;;;;7.03;2.88;;;14.00;99.90;;;;;;4805856;29;91975;-77
2022/08/23 04:20:02;;;;;;;6.15;2.40;;;14.10;99.90;;;;;;4804126;29;91442;-78
2022/08/23 04:22:28;;;;;;;6.38;2.55;;;14.20;99.90;;;;;;4807963;29;92054;-76
2022/08/23 04:24:54;;;;;;;7.10;2.60;;;14.30;99.90;;;;;;4808012;29;92492;-72
2022/08/23 04:27:21;;;;;;;6.43;2.92;;;14.40;99.90;;;;;;4808024;29;91637;-72
2022/08/23 04:29:47;;;;;;;5.15;2.40;;;14.40;99.90;;;;;;4804389;29;91237;-74
2022/08/23 04:32:14;;;;;;;6.75;2.65;;;14.40;99.90;;;;;;4806426;29;93009;-72
2022/08/23 04:34:41;;;;;;;5.20;2.63;;;14.40;99.90;;;;;;4807616;29;93862;-72
2022/08/23 04:37:08;;;;;;;8.85;3.05;;;14.40;99.90;;;;;;4806761;29;91920;-73
2022/08/23 04:42:16;;;;;;;7.30;2.83;;;14.30;99.90;;;;;;4805239;29;91423;-73
2022/08/23 04:42:22;;;;;;;10.50;3.70;;;14.30;99.90;;;;;;4811764;29;93136;-73
2022/08/23 04:44:48;;;;;;;6.15;2.97;;;14.30;99.90;;;;;;4801677;29;92384;-74
2022/08/23 04:47:14;;;;;;;7.85;3.10;;;14.30;99.90;;;;;;4806506;29;91993;-73
2022/08/23 04:49:40;;;;;;;7.97;3.00;;;14.30;99.90;;;;;;4803215;29;90573;-71
2022/08/23 04:52:06;;;;;;;5.50;2.85;;;14.50;99.90;;;;;;4806356;29;91695;-73
2022/08/23 04:54:31;;;;;;;8.20;3.20;;;14.80;99.90;;;;;;4796231;29;92017;-72
2022/08/23 04:56:57;;;;;;;7.57;3.05;;;15.30;99.90;;;;;;4806552;29;92951;-72
2022/08/23 04:59:23;;;;;;;6.38;2.63;;;16.00;99.90;;;;;;4800655;29;91858;-72
2022/08/23 05:01:50;;;;;;;5.10;2.10;;;16.60;99.90;;;;;;4806368;29;92347;-73
2022/08/23 05:04:16;;;;;;;8.27;3.03;;;17.10;99.90;;;;;;4799388;29;91919;-72
2022/08/23 05:06:42;;;;;;;6.57;2.42;;;17.20;99.90;;;;;;4805237;29;92126;-74
2022/08/23 05:09:08;;;;;;;8.20;2.50;;;17.40;97.30;;;;;;4800174;29;92249;-72
2022/08/23 05:11:34;;;;;;;8.88;2.92;;;17.60;97.40;;;;;;4802406;29;93200;-74
2022/08/23 05:14:00;;;;;;;5.40;2.10;;;18.00;94.60;;;;;;4810171;29;91687;-73
2022/08/23 05:16:26;;;;;;;6.18;2.58;;;18.20;94.00;;;;;;4806278;29;91298;-72
2022/08/23 05:18:51;;;;;;;5.13;2.33;;;18.60;92.20;;;;;;4794273;29;91315;-73
2022/08/23 05:21:20;;;;;;;7.88;2.35;;;18.70;90.80;;;;;;4797239;29;93308;-72
2022/08/23 05:23:46;;;;;;;5.63;2.95;;;19.00;90.60;;;;;;4800596;29;92873;-73
2022/08/23 05:26:12;;;;;;;4.97;2.22;;;19.10;90.00;;;;;;4806250;29;92160;-74
2022/08/23 05:28:41;;;;;;;6.55;2.92;;;19.40;88.00;;;;;;4805965;29;91860;-73
2022/08/23 05:31:12;;;;;;;3.67;2.42;;;19.70;85.90;;;;;;4797041;29;91537;-72
2022/08/23 05:33:39;;;;;;;7.45;2.88;;;20.20;85.00;;;;;;4791379;29;91966;-72
2022/08/23 05:36:06;;;;;;;4.78;2.40;;;20.10;82.50;;;;;;4803126;29;91368;-75
2022/08/23 05:38:33;;;;;;;6.88;2.67;;;20.50;84.60;;;;;;4800406;29;90905;-72
2022/08/23 05:41:00;;;;;;;7.07;2.63;;;20.90;80.80;;;;;;4804014;29;92291;-72
2022/08/23 05:43:27;;;;;;;5.70;2.65;;;21.00;80.10;;;;;;4803905;29;92020;-72
2022/08/23 05:46:19;;;;;;;13.13;2.97;;;21.50;77.70;;;;;;4802380;29;93081;-73
2022/08/23 05:48:48;;;;;;;4.18;2.35;;;20.80;77.80;;;;;;4798262;29;92176;-72
2022/08/23 05:51:26;;;;;;;7.93;2.38;;;21.40;75.70;;;;;;4805644;29;92341;-73
2022/08/23 05:53:53;;;;;;;6.57;2.63;;;23.20;71.80;;;;;;4803128;29;91400;-73
2022/08/23 05:56:31;;;;;;;5.80;2.67;;;23.70;68.10;;;;;;4808434;29;91326;-72
2022/08/23 05:59:00;;;;;;;6.38;2.47;;;24.10;65.90;;;;;;4801916;29;91700;-73
2022/08/23 06:01:27;;;;;;;6.85;2.75;;;23.90;64.50;;;;;;4802009;29;92358;-73
2022/08/23 06:03:53;;;;;;;5.60;2.38;;;24.30;65.50;;;;;;4802524;29;92238;-72
2022/08/23 06:06:19;;;;;;;4.68;2.00;;;25.30;60.60;;;;;;4810330;29;91289;-74
2022/08/23 06:08:46;;;;;;;5.60;2.53;;;24.50;62.00;;;;;;4808953;29;92102;-73
2022/08/23 06:11:17;;;;;;;12.88;2.45;;;23.50;64.10;;;;;;4798919;29;92792;-73
2022/08/23 06:13:48;;;;;;;6.00;2.20;;;22.10;68.80;;;;;;4804548;29;94699;-73
2022/08/23 06:16:17;;;;;;;4.13;2.22;;;21.20;72.30;;;;;;4806102;29;91733;-73
2022/08/23 06:18:44;;;;;;;5.57;2.22;;;20.80;74.50;;;;;;4805029;29;91396;-72
2022/08/23 06:21:12;;;;;;;7.60;2.17;;;21.20;73.10;;;;;;4805418;29;92352;-72
2022/08/23 06:23:38;;;;;;;9.15;2.63;;;22.60;69.50;;;;;;4804640;29;91897;-73
2022/08/23 06:26:12;;;;;;;4.50;2.35;;;23.50;67.60;;;;;;4804021;29;92052;-74
2022/08/23 06:28:38;;;;;;;5.38;2.92;;;25.10;62.30;;;;;;4805927;29;90914;-74
2022/08/23 06:31:04;;;;;;;8.25;2.80;;;25.70;60.10;;;;;;4806047;29;91677;-73
2022/08/23 06:33:30;;;;;;;6.18;2.78;;;25.60;60.30;;;;;;4804585;29;91812;-73
2022/08/23 06:36:08;;;;;;;5.70;2.28;;;25.70;60.70;;;;;;4798037;29;92766;-73
2022/08/23 06:38:34;;;;;;;7.65;2.75;;;26.90;58.00;;;;;;4801529;29;91387;-72
2022/08/23 06:41:07;;;;;;;6.82;2.15;;;27.00;57.00;;;;;;4812714;29;92089;-73
2022/08/23 06:43:33;;;;;;;7.10;2.70;;;28.10;56.10;;;;;;4806852;29;91997;-73
2022/08/23 06:46:27;;;;;;;6.20;2.50;;;28.90;52.60;;;;;;4804216;29;91375;-74
2022/08/23 06:48:53;;;;;;;7.63;2.50;;;29.50;52.90;;;;;;4804905;29;91373;-73
2022/08/23 06:51:26;;;;;;;5.70;2.25;;;29.80;50.60;;;;;;4804995;29;92270;-71
2022/08/23 06:53:54;;;;;;;8.00;2.42;;;30.40;50.60;;;;;;4804313;29;92005;-73
2022/08/23 06:56:21;;;;;;;4.78;2.03;;;32.30;49.50;;;;;;4807994;29;91478;-71
2022/08/23 06:58:47;;;;;;;5.25;1.70;;;33.20;43.70;;;;;;4803416;29;91449;-72
2022/08/23 07:01:31;;;;;;;7.65;2.78;;;34.00;45.10;;;;;;4807653;29;93775;-71
2022/08/23 07:03:58;;;;;;;4.03;2.45;;;33.20;43.30;;;;;;4806659;29;93320;-72
2022/08/23 07:06:25;;;;;;;9.15;2.67;;;31.90;44.90;;;;;;4808023;29;91779;-71
2022/08/23 07:08:51;;;;;;;4.20;2.22;;;33.20;44.40;;;;;;4808104;29;91289;-72
2022/08/23 07:11:18;;;;;;;7.88;2.50;;;34.30;41.70;;;;;;4804436;29;92557;-72
2022/08/23 07:13:44;;;;;;;3.50;2.17;;;35.60;41.30;;;;;;4810777;29;92929;-71
2022/08/23 07:16:10;;;;;;;3.45;2.38;;;35.70;42.00;;;;;;4809914;29;91654;-72
2022/08/23 07:18:36;;;;;;;7.03;2.17;;;37.70;39.70;;;;;;4807824;29;91254;-71
2022/08/23 07:21:03;;;;;;;6.40;2.65;;;39.40;38.10;;;;;;4807828;29;92278;-72
2022/08/23 07:23:32;;;;;;;4.35;2.42;;;40.20;36.10;;;;;;4807358;29;91946;-71
2022/08/23 07:26:02;;;;;;;6.60;2.38;;;40.80;35.70;;;;;;4806768;29;92281;-71
2022/08/23 07:28:29;;;;;;;3.90;2.45;;;40.90;35.30;;;;;;4806942;29;93639;-71
2022/08/23 07:31:04;;;;;;;6.32;3.22;;;41.50;35.40;;;;;;4807281;29;91776;-71
2022/08/23 07:33:30;;;;;;;5.38;2.75;;;41.20;35.50;;;;;;4807412;29;91697;-72
2022/08/23 07:35:56;;;;;;;4.43;3.03;;;41.50;34.90;;;;;;4807084;29;92370;-71
2022/08/23 07:38:21;;;;;;;4.22;3.42;;;42.30;34.90;;;;;;4807153;29;91467;-70
2022/08/23 07:40:47;;;;;;;4.43;3.00;;;42.40;35.00;;;;;;4814830;29;92148;-71
2022/08/23 07:43:13;;;;;;;6.00;3.53;;;42.50;34.50;;;;;;4804370;29;91826;-71
2022/08/23 07:45:39;;;;;;;7.20;4.38;;;43.10;34.70;;;;;;4813045;29;92104;-71
2022/08/23 07:48:06;;;;;;;9.15;3.60;;;43.40;33.90;;;;;;4808118;29;91964;-73
2022/08/23 07:50:31;;;;;;;4.88;4.07;;;43.00;33.60;;;;;;4806796;29;93012;-72
2022/08/23 07:52:57;;;;;;;4.75;4.18;;;43.90;33.40;;;;;;4806514;29;92959;-74
2022/08/23 07:55:23;;;;;;;7.32;3.60;;;44.60;32.40;;;;;;4798739;29;91998;-71
2022/08/23 07:57:49;;;;;;;4.70;3.65;;;44.20;32.70;;;;;;4807031;29;92460;-71
2022/08/23 08:00:15;;;;;;;4.03;3.38;;;45.00;32.10;;;;;;4806136;29;91796;-71
2022/08/23 08:02:41;;;;;;;5.20;4.70;;;46.10;30.50;;;;;;4806909;29;91836;-71
2022/08/23 08:05:07;;;;;;;6.13;3.55;;;46.30;29.40;;;;;;4806837;29;91969;-72
2022/08/23 08:07:33;;;;;;;3.95;2.85;;;45.60;30.00;;;;;;4807015;29;91390;-72
2022/08/23 08:09:59;;;;;;;4.55;3.10;;;44.60;30.30;;;;;;4802837;29;92273;-72
2022/08/23 08:12:27;;;;;;;4.30;3.38;;;45.20;30.00;;;;;;4806588;29;91707;-71
2022/08/23 08:14:52;;;;;;;4.32;3.78;;;46.30;29.90;;;;;;4802809;29;93380;-73
2022/08/23 08:17:18;;;;;;;5.35;3.88;;;46.60;29.60;;;;;;4812453;29;92254;-72
2022/08/23 08:19:44;;;;;;;5.00;4.25;;;47.00;29.50;;;;;;4800096;29;92411;-72
2022/08/23 08:22:11;;;;;;;5.55;5.03;;;48.00;29.30;;;;;;4806588;29;92329;-72
2022/08/23 08:24:37;;;;;;;4.43;4.00;;;48.20;28.80;;;;;;4806064;29;92438;-72
2022/08/23 08:27:02;;;;;;;5.18;4.43;;;48.40;29.20;;;;;;4800103;29;91884;-71
2022/08/23 08:29:28;;;;;;;6.57;5.97;;;48.30;29.50;;;;;;4801747;29;93754;-71
2022/08/23 08:31:54;;;;;;;4.32;3.92;;;48.10;29.00;;;;;;4802653;29;91872;-72
2022/08/23 08:34:20;;;;;;;6.03;5.53;;;47.40;29.70;;;;;;4794290;29;91444;-71
2022/08/23 08:36:48;;;;;;;6.13;5.38;;;47.20;29.60;;;;;;4805316;29;91510;-74
2022/08/23 08:39:17;;;;;;;5.90;4.93;;;47.60;29.80;;;;;;4805768;29;93306;-73
2022/08/23 08:42:03;;;;;;;6.93;6.32;;;48.10;29.10;;;;;;4808700;29;92378;-73
2022/08/23 08:44:46;;;;;;;6.20;5.03;;;47.60;30.00;;;;;;4802860;29;91436;-73
2022/08/23 08:47:32;;;;;;;6.72;5.15;;;47.40;30.40;;;;;;4810603;29;91989;-72
2022/08/23 08:50:10;;;;;;;7.28;5.68;;;48.60;29.50;;;;;;4797396;29;92043;-72
2022/08/23 08:52:43;;;;;;;8.32;5.68;;;48.60;28.80;;;;;;4792568;29;92163;-72
2022/08/23 08:55:38;;;;;;;8.15;7.35;;;48.80;29.40;;;;;;4800597;29;92289;-71
2022/08/23 08:58:06;;;;;;;7.70;7.03;;;49.70;28.80;;;;;;4806105;29;91369;-73
2022/08/23 09:00:36;;;;;;;7.82;7.13;;;50.50;28.30;;;;;;4806038;29;92270;-72
2022/08/23 09:03:10;;;;;;;8.40;7.70;;;50.70;28.90;;;;;;4805788;29;92016;-73
2022/08/23 09:05:38;;;;;;;7.20;6.30;;;50.40;28.30;;;;;;4804250;29;93179;-72
2022/08/23 09:08:13;;;;;;;7.97;7.28;;;49.60;29.00;;;;;;4805753;29;92131;-72
2022/08/23 09:10:56;;;;;;;6.80;6.10;;;49.90;28.60;;;;;;4803542;29;91712;-73
2022/08/23 09:13:55;;;;;;;7.05;6.35;;;50.30;28.40;;;;;;4806066;29;92092;-72
2022/08/23 09:16:40;;;;;;;;;;;50.50;28.80;;;;;;4798058;29;91947;-74
2022/08/23 09:19:06;;;;;;;9.63;8.73;;;51.00;29.00;;;;;;4806912;29;92014;-72
2022/08/23 09:21:47;;;;;;;8.95;8.18;;;50.50;29.50;;;;;;4805785;29;92357;-74
2022/08/23 09:24:13;;;;;;;9.18;8.27;;;49.80;29.40;;;;;;4804739;29;91274;-72
2022/08/23 09:26:39;;;;;;;7.75;7.05;;;47.90;30.70;;;;;;4800756;29;91756;-72
2022/08/23 09:29:20;;;;;;;9.52;8.73;;;48.10;30.50;;;;;;4805780;29;91624;-72
2022/08/23 09:32:26;;;;;;;9.25;8.35;;;47.90;30.90;;;;;;4804788;29;93489;-73
2022/08/23 09:35:03;;;;;;;8.25;7.55;;;49.50;29.90;;;;;;4803429;29;92338;-73
2022/08/23 09:37:29;;;;;;;10.57;9.60;;;50.40;29.70;;;;;;4806297;29;91784;-72
2022/08/23 09:40:16;;;;;;;8.27;7.53;;;50.70;28.80;;;;;;4805898;29;91402;-72
2022/08/23 09:42:42;;;;;;;8.40;7.55;;;51.40;28.70;;;;;;4791485;29;93457;-72
2022/08/23 09:45:37;;;;;;;8.10;7.40;;;50.70;29.10;;;;;;4805274;29;92094;-74
2022/08/23 09:48:05;;;;;;;7.75;7.03;;;50.60;28.60;;;;;;4805900;29;91522;-74
2022/08/23 09:50:37;;;;;;;10.00;7.53;;;48.60;30.00;;;;;;4813081;29;91258;-72
2022/08/23 09:53:14;;;;;;;7.43;6.68;;;50.30;29.20;;;;;;4804126;29;92797;-73
2022/08/23 09:55:46;;;;;;;9.68;8.23;;;49.70;29.20;;;;;;4803428;29;92095;-72
2022/08/23 09:58:37;;;;;;;6.93;6.22;;;48.50;29.60;;;;;;4804822;29;93472;-72
2022/08/23 10:01:15;;;;;;;8.68;7.97;;;47.90;30.20;;;;;;4804663;29;91333;-72
2022/08/23 10:03:41;;;;;;;8.52;7.60;;;49.30;29.60;;;;;;4803923;29;92738;-72
2022/08/23 10:06:10;;;;;;;8.00;7.20;;;49.30;29.50;;;;;;4793519;29;92059;-72
2022/08/23 10:08:49;;;;;;;7.45;6.78;;;48.90;30.10;;;;;;4804749;29;92113;-72
2022/08/23 10:11:20;;;;;;;8.43;6.55;;;48.90;29.80;;;;;;4799921;29;92033;-72
2022/08/23 10:13:46;;;;;;;6.63;6.03;;;48.00;30.00;;;;;;4804079;29;92309;-72
2022/08/23 10:16:18;;;;;;;6.57;5.90;;;46.20;32.10;;;;;;4801725;29;91712;-76
2022/08/23 10:18:59;;;;;;;7.00;5.88;;;45.00;32.40;;;;;;4799123;29;91666;-71
2022/08/23 10:21:38;;;;;;;5.85;5.30;;;43.10;32.80;;;;;;4790488;29;91421;-73
2022/08/23 10:24:22;;;;;;;6.47;5.85;;;40.50;34.50;;;;;;4792074;29;93362;-72
2022/08/23 10:26:54;;;;;;;7.18;4.88;;;38.10;37.90;;;;;;4802126;29;93060;-72
2022/08/23 10:29:36;;;;;;;7.18;5.10;;;35.60;40.30;;;;;;4801225;29;91753;-71
2022/08/23 10:32:05;;;;;;;5.78;4.15;;;33.40;44.70;;;;;;4805010;29;92351;-71
2022/08/23 10:34:41;;;;;;;4.22;3.38;;;32.30;47.10;;;;;;4798435;29;91831;-71
2022/08/23 10:37:44;;;;;;;5.68;2.72;;;32.10;46.50;;;;;;4805366;29;92124;-70
2022/08/23 10:40:33;;;;;;;3.35;2.70;;;30.70;47.30;;;;;;4790267;29;92026;-70
2022/08/23 10:43:42;;;;;;;2.67;2.17;;;29.90;48.40;;;;;;4803078;29;91207;-72
2022/08/23 10:46:09;;;;;;;5.05;1.67;;;29.40;49.40;;;;;;4765148;29;92308;-69
2022/08/23 10:48:47;;;;;;;3.22;2.08;;;29.30;48.80;;;;;;4800102;29;91961;-72
2022/08/23 10:51:24;;;;;;;3.38;2.42;;;29.20;48.70;;;;;;4797714;29;92877;-71
2022/08/23 10:53:59;;;;;;;2.78;1.33;;;28.70;50.10;;;;;;4805624;29;91810;-72
2022/08/23 10:56:27;;;;;;;4.47;1.65;;;28.30;52.30;;;;;;4805087;29;92291;-70
2022/08/23 10:59:06;;;;;;;4.70;1.70;;;28.40;51.60;;;;;;4803474;29;92095;-71
2022/08/23 11:02:05;;;;;;;2.08;1.15;;;28.60;48.40;;;;;;4798751;29;91940;-71
2022/08/23 11:04:48;;;;;;;2.47;1.30;;;28.90;49.90;;;;;;4793339;29;91804;-73
2022/08/23 11:07:40;;;;;;;2.47;1.25;;;28.90;50.60;;;;;;4801131;29;92262;-75
2022/08/23 11:10:16;;;;;;;4.32;1.70;;;28.70;50.80;;;;;;4802627;29;91040;-73
2022/08/23 11:12:53;;;;;;;3.33;1.60;;;28.60;50.30;;;;;;4803263;29;91395;-72
2022/08/23 11:15:31;;;;;;;3.40;1.85;;;28.30;49.20;;;;;;4799051;29;91819;-72
2022/08/23 11:18:00;;;;;;;4.75;2.03;;;28.40;49.50;;;;;;4802659;29;93000;-73
2022/08/23 11:21:32;;;;;;;3.92;1.58;;;27.80;51.40;;;;;;4804146;29;92948;-73
2022/08/23 11:23:58;;;;;;;3.55;1.15;;;28.00;51.90;;;;;;4747290;29;91424;-72
2022/08/23 11:26:26;;;;;;;2.33;1.02;;;28.00;51.60;;;;;;4803552;29;91952;-72
2022/08/23 11:29:09;;;;;;;4.72;1.75;;;27.80;51.80;;;;;;4802888;29;93369;-72
2022/08/23 11:31:39;;;;;;;3.85;1.52;;;27.90;50.10;;;;;;4798262;29;91416;-72
2022/08/23 11:34:11;;;;;;;2.47;1.23;;;28.10;51.30;;;;;;4804612;29;91334;-73
2022/08/23 11:36:37;;;;;;;3.55;1.70;;;28.10;51.00;;;;;;4803557;29;90921;-72
2022/08/23 11:39:12;;;;;;;4.22;1.85;;;28.00;52.20;;;;;;4802509;29;92418;-74
2022/08/23 11:41:53;;;;;;;2.25;1.20;;;27.60;50.70;;;;;;4800646;29;92769;-73
2022/08/23 11:44:33;;;;;;;3.13;1.55;;;27.30;52.10;;;;;;4806142;29;93292;-72
2022/08/23 11:47:02;;;;;;;3.15;1.13;;;27.40;51.40;;;;;;4807473;29;91202;-73
2022/08/23 11:49:56;;;;;;;3.60;1.05;;;27.40;52.90;;;;;;4807859;29;92155;-72
2022/08/23 11:52:22;;;;;;;4.70;1.15;;;27.30;52.40;;;;;;4807359;29;91678;-73
2022/08/23 11:55:11;;;;;;;2.83;1.13;;;27.30;52.00;;;;;;4807834;29;91611;-74
2022/08/23 11:57:55;;;;;;;2.90;1.13;;;27.40;53.50;;;;;;4805710;29;91875;-72
2022/08/23 12:00:30;;;;;;;2.40;0.88;;;27.30;50.90;;;;;;4804771;29;91692;-72
2022/08/23 12:03:05;;;;;;;2.60;1.25;;;27.30;50.60;;;;;;4805883;29;91983;-73
2022/08/23 12:05:33;;;;;;;3.45;1.15;;;27.40;51.10;;;;;;4807171;29;92247;-72
2022/08/23 12:08:02;;;;;;;6.35;0.93;;;27.40;50.70;;;;;;4804946;29;91416;-72
2022/08/23 12:10:39;;;;;;;2.42;1.02;;;26.90;49.20;;;;;;4801886;29;93207;-71
2022/08/23 12:13:18;;;;;;;4.82;1.05;;;27.20;52.30;;;;;;4801802;29;94109;-73
2022/08/23 12:16:04;;;;;;;4.90;1.23;;;27.10;51.60;;;;;;4803238;29;93161;-72
2022/08/23 12:18:56;;;;;;;2.17;0.95;;;27.20;53.00;;;;;;4805915;29;91975;-73
2022/08/23 12:21:42;;;;;;;2.33;1.13;;;27.40;51.40;;;;;;4802225;29;92417;-72
2022/08/23 12:24:25;;;;;;;4.85;1.00;;;27.30;51.40;;;;;;4803016;29;92108;-72
2022/08/23 12:26:59;;;;;;;2.38;1.10;;;27.10;49.70;;;;;;4803057;29;91482;-72
2022/08/23 12:29:55;;;;;;;2.88;1.17;;;27.00;52.60;;;;;;4801227;29;90773;-72
2022/08/23 12:32:28;;;;;;;3.63;0.80;;;27.10;51.30;;;;;;4803740;29;91789;-72
2022/08/23 12:35:12;;;;;;;3.13;1.05;;;27.10;52.70;;;;;;4801177;29;92476;-72
2022/08/23 12:37:43;;;;;;;3.05;0.80;;;27.30;50.20;;;;;;4800849;29;93037;-74
2022/08/23 12:40:20;;;;;;;3.50;1.00;;;27.10;52.00;;;;;;4806278;29;93110;-73
2022/08/23 12:42:46;;;;;;;4.13;0.80;;;27.20;52.20;;;;;;4806522;29;92741;-71
2022/08/23 12:45:20;;;;;;;4.47;0.88;;;27.00;51.30;;;;;;4805007;29;92015;-72
2022/08/23 12:47:57;;;;;;;2.45;0.90;;;27.20;52.90;;;;;;4804975;29;91795;-71
2022/08/23 12:50:38;;;;;;;3.47;0.98;;;27.40;51.40;;;;;;4800011;29;91864;-72
2022/08/23 12:53:13;;;;;;;3.38;1.10;;;27.30;50.00;;;;;;4803992;29;92462;-76
2022/08/23 12:55:48;;;;;;;3.55;0.82;;;27.20;51.60;;;;;;4804288;29;92596;-73
2022/08/23 12:58:16;;;;;;;2.42;0.65;;;27.30;51.80;;;;;;4804420;29;91321;-72
2022/08/23 13:00:58;;;;;;;2.20;1.00;;;27.30;49.60;;;;;;4805849;29;91355;-72
2022/08/23 13:03:38;;;;;;;;;;;27.10;50.50;;;;;;4803419;29;93243;-72
2022/08/23 13:06:12;;;;;;;2.40;1.00;;;27.30;50.90;;;;;;4805145;29;92756;-72
2022/08/23 13:08:45;;;;;;;2.88;1.25;;;27.20;52.00;;;;;;4802434;29;91835;-72
2022/08/23 13:11:13;;;;;;;3.88;0.88;;;27.20;51.00;;;;;;4796560;29;91457;-72
2022/08/23 13:13:42;;;;;;;2.55;1.02;;;27.00;49.90;;;;;;4801476;29;91809;-74
2022/08/23 13:16:30;;;;;;;3.03;0.80;;;27.10;51.20;;;;;;4804228;29;93338;-72
2022/08/23 13:19:17;;;;;;;2.10;0.95;;;27.20;50.70;;;;;;4806116;29;91427;-73
2022/08/23 13:21:43;;;;;;;2.13;0.70;;;27.10;49.90;;;;;;4805055;29;91283;-73
2022/08/23 13:24:35;;;;;;;3.22;0.80;;;26.90;51.80;;;;;;4803062;29;91741;-72
2022/08/23 13:27:18;;;;;;;2.90;0.88;;;26.80;50.20;;;;;;4804820;29;91292;-72
2022/08/23 13:29:51;;;;;;;2.15;0.75;;;26.90;51.60;;;;;;4804277;29;92925;-71
2022/08/23 13:32:43;;;;;;;2.60;0.88;;;27.00;50.60;;;;;;4809059;29;91942;-73
2022/08/23 13:35:24;;;;;;;3.78;1.05;;;27.00;49.40;;;;;;4805792;29;92344;-75
2022/08/23 13:37:52;;;;;;;3.63;1.08;;;27.00;50.30;;;;;;4806067;29;91982;-72
2022/08/23 13:40:22;;;;;;;1.58;0.88;;;27.00;51.00;;;;;;4804390;29;91912;-71
2022/08/23 13:43:04;;;;;;;2.50;0.75;;;27.00;51.50;;;;;;4805442;29;92127;-73
2022/08/23 13:45:34;;;;;;;3.97;0.90;;;26.80;49.90;;;;;;4803655;29;92897;-71
2022/08/23 13:48:21;;;;;;;2.25;0.80;;;26.80;49.60;;;;;;4805815;29;91603;-72
2022/08/23 13:50:47;;;;;;;2.15;0.70;;;26.90;49.00;;;;;;4806063;29;91326;-72
2022/08/23 13:53:13;;;;;;;3.17;0.63;;;26.90;50.50;;;;;;4806022;29;91408;-73
2022/08/23 13:55:54;;;;;;;2.00;0.70;;;26.90;50.40;;;;;;4804416;29;93060;-72
2022/08/23 13:58:27;;;;;;;1.42;0.55;;;27.00;50.30;;;;;;4803623;29;92882;-72
2022/08/23 14:00:54;;;;;;;2.95;0.80;;;26.90;51.10;;;;;;4801361;29;92436;-71
2022/08/23 14:03:19;;;;;;;2.65;0.93;;;26.80;52.10;;;;;;4806167;29;91473;-72
2022/08/23 14:05:45;;;;;;;1.75;0.93;;;26.80;50.50;;;;;;4800204;29;92896;-72
2022/08/23 14:08:11;;;;;;;3.00;0.60;;;26.80;52.00;;;;;;4805549;29;91654;-72
2022/08/23 14:10:37;;;;;;;2.05;0.57;;;26.60;51.10;;;;;;4804722;29;91955;-74
2022/08/23 14:13:03;;;;;;;2.97;0.77;;;26.50;51.20;;;;;;4805894;29;91121;-71
2022/08/23 14:15:29;;;;;;;3.25;0.82;;;26.60;51.20;;;;;;4801145;29;92308;-72
2022/08/23 14:17:56;;;;;;;2.17;0.63;;;26.60;51.60;;;;;;4796855;29;92075;-72
2022/08/23 14:20:24;;;;;;;6.57;0.90;;;26.60;52.20;;;;;;4805376;29;92719;-72
2022/08/23 14:22:51;;;;;;;1.88;0.60;;;26.70;50.80;;;;;;4805719;29;91799;-72
2022/08/23 14:25:16;;;;;;;1.98;0.85;;;26.80;50.90;;;;;;4805363;29;92383;-71
2022/08/23 14:27:44;;;;;;;2.65;0.63;;;26.70;50.60;;;;;;4804479;29;91308;-72
2022/08/23 14:30:39;;;;;;;2.90;0.85;;;26.60;52.80;;;;;;4805848;29;91790;-72
2022/08/23 14:33:04;;;;;;;1.60;0.77;;;26.70;52.00;;;;;;4802151;29;91794;-74
2022/08/23 14:35:30;;;;;;;2.33;0.73;;;26.70;51.30;;;;;;4803870;29;92349;-72
2022/08/23 14:37:56;;;;;;;1.80;0.70;;;26.70;50.30;;;;;;4806478;29;91114;-72
2022/08/23 14:40:22;;;;;;;2.83;1.15;;;26.60;50.50;;;;;;4805681;29;91834;-72
2022/08/23 14:42:48;;;;;;;1.35;0.47;;;26.60;49.20;;;;;;4805873;29;92009;-72
2022/08/23 14:45:16;;;;;;;4.00;0.57;;;26.70;51.30;;;;;;4803293;29;92544;-73
2022/08/23 14:47:42;;;;;;;3.85;0.57;;;26.70;49.10;;;;;;4805769;29;95292;-72
2022/08/23 14:50:10;;;;;;;3.45;0.93;;;26.60;49.70;;;;;;4802198;29;91256;-71
2022/08/23 14:52:39;;;;;;;1.55;0.50;;;26.50;49.30;;;;;;4805510;29;92036;-73
2022/08/23 14:55:06;;;;;;;2.10;0.55;;;26.60;49.70;;;;;;4803839;29;92315;-72
2022/08/23 14:57:31;;;;;;;1.25;0.40;;;26.50;47.30;;;;;;4804898;29;94111;-74
2022/08/23 14:59:57;;;;;;;2.95;0.52;;;26.70;51.40;;;;;;4805132;29;91927;-71
2022/08/23 15:02:25;;;;;;;3.42;0.57;;;26.80;50.60;;;;;;4802847;29;91393;-73
2022/08/23 15:04:52;;;;;;;2.67;0.52;;;26.80;49.10;;;;;;4798780;29;92782;-71
2022/08/23 15:07:18;;;;;;;2.15;0.80;;;26.80;51.00;;;;;;4797943;29;92487;-73
2022/08/23 15:09:44;;;;;;;2.80;0.73;;;26.80;51.30;;;;;;4799581;29;92932;-72
2022/08/23 15:12:10;;;;;;;2.33;0.40;;;26.70;50.70;;;;;;4805311;29;92022;-72
2022/08/23 15:14:36;;;;;;;2.10;0.68;;;26.70;52.20;;;;;;4799412;29;92330;-74
2022/08/23 15:17:02;;;;;;;2.33;0.80;;;26.70;51.00;;;;;;4801461;29;92112;-72
2022/08/23 15:19:29;;;;;;;2.45;0.60;;;26.50;50.10;;;;;;4808684;29;92635;-72
2022/08/23 15:21:54;;;;;;;1.63;0.73;;;26.50;51.80;;;;;;4809286;29;91349;-71
2022/08/23 15:24:20;;;;;;;2.38;0.73;;;26.50;52.00;;;;;;4806334;29;91935;-72
2022/08/23 15:26:46;;;;;;;2.55;0.52;;;26.40;52.20;;;;;;4808554;29;91944;-72
2022/08/23 15:29:11;;;;;;;1.75;0.38;;;26.50;52.00;;;;;;4802934;29;91939;-72
2022/08/23 15:31:37;;;;;;;2.50;0.68;;;26.50;51.20;;;;;;4808181;29;91848;-73
2022/08/23 15:34:03;;;;;;;1.70;0.70;;;26.60;51.20;;;;;;4807106;29;93048;-72
2022/08/23 15:36:40;;;;;;;2.80;0.50;;;26.60;47.90;;;;;;4807321;29;92831;-72
2022/08/23 15:39:06;;;;;;;1.02;0.45;;;26.60;47.60;;;;;;4806154;29;91979;-72
2022/08/23 15:41:32;;;;;;;1.98;0.70;;;26.60;48.70;;;;;;4805877;29;91583;-71
2022/08/23 15:43:58;;;;;;;1.60;0.40;;;26.60;45.70;;;;;;4805417;29;92291;-73
2022/08/23 15:46:24;;;;;;;4.95;0.40;;;26.60;48.30;;;;;;4803890;29;91860;-75
2022/08/23 15:49:00;;;;;;;1.38;0.28;;;26.50;49.70;;;;;;4808291;29;92201;-72
2022/08/23 15:51:27;;;;;;;1.88;0.70;;;26.50;49.50;;;;;;4807951;29;91265;-72
2022/08/23 15:53:53;;;;;;;2.67;0.47;;;26.40;47.70;;;;;;4804131;29;92172;-71
2022/08/23 15:56:27;;;;;;;1.65;0.68;;;26.30;47.80;;;;;;4803462;29;92097;-72